Automatic Plant Watering & Monitor  

Temp Humidity Water % Time Seconds gap Battery
21c 39 47 01:52:11 AM10064.89
21c 37 48 01:35:25 AM10064.89
21c 38 48 01:18:39 AM10064.89
21c 38 48 01:01:53 AM10064.89
21c 38 48 12:45:07 AM10074.89
21c 38 48 12:28:20 AM10064.89
21c 37 49 12:11:34 AM10064.89
21c 37 49 11:54:48 PM10064.89
21c 37 49 11:38:02 PM10064.89
21c 39 49 11:21:16 PM10064.89
21c 35 49 11:04:30 PM10074.89
21c 37 49 10:47:43 PM10064.89
21c 40 48 10:30:57 PM10064.89
21c 38 49 10:14:11 PM10064.89
21c 36 49 09:57:25 PM10064.89
21c 37 49 09:40:39 PM10064.89
21c 36 49 09:23:53 PM10064.89
21c 34 49 09:07:07 PM10054.89
24c 31 49 08:50:22 PM9884.89
24c 30 47 08:33:54 PM8633 rebooted 2934.89
24c 25 46 06:10:01 PM1188 rebooted 74.89
25c 23 47 05:50:13 PM1097 rebooted 34.89
26c 19 49 05:31:56 PM1041 rebooted 14.89
27c 15 49 05:14:35 PM1026 rebooted 04.89
27c 12 49 04:57:29 PM1044 rebooted 14.89
30c 10 52 04:40:05 PM1055 rebooted 24.89
31c 10 52 04:22:30 PM10074.89
31c 13 52 04:05:43 PM10064.89
27c 14 52 03:48:57 PM10094.89
27c 16 52 03:32:08 PM10084.89
29c 19 52 03:15:20 PM10034.89
29c 16 52 02:58:37 PM10054.89
28c 17 52 02:41:52 PM5660.00
29c 31 47 02:32:26 PM10184.89
26c 21 47 02:15:28 PM1054 rebooted 24.89
26c 24 47 01:57:54 PM714.89
27c 20 48 01:56:43 PM6934.89
26c 16 51 01:45:10 PM10064.89
25c 22 51 01:28:24 PM9994.89
25c 20 50 01:11:45 PM1084.89
25c 24 50 01:09:57 PM1854.89
24c 23 43 01:06:52 PM1045 rebooted 14.89
22c 23 41 12:49:27 PM1064 rebooted 24.89
22c 26 42 12:31:43 PM4144.89
20c 33 35 12:24:49 PM1123 rebooted 44.89
21c 32 35 12:06:06 PM1089 rebooted 34.89
21c 31 35 11:47:57 AM1113 rebooted 44.89
22c 29 35 11:29:24 AM1085 rebooted 34.89
24c 42 35 11:11:19 AM1085 rebooted 34.89
22c 35 35 10:53:14 AM1081 rebooted 34.89
22c 40 35 10:35:13 AM1065 rebooted 24.89
22c 38 35 10:17:28 AM1050 rebooted 14.89
23c 39 35 09:59:58 AM1260 rebooted 94.89
22c 43 35 09:38:58 AM1084 rebooted 34.89
22c 40 35 09:20:54 AM1123 rebooted 44.89
22c 40 35 09:02:11 AM1098 rebooted 34.89
22c 41 35 08:43:53 AM1067 rebooted 24.89
22c 41 35 08:26:06 AM1095 rebooted 34.89
21c 40 35 08:07:51 AM1067 rebooted 24.89
22c 40 35 07:50:04 AM1111 rebooted 44.89
22c 41 35 07:31:33 AM1134 rebooted 54.89
22c 40 35 07:12:39 AM1117 rebooted 44.89
21c 42 35 06:54:02 AM1093 rebooted 34.89
22c 39 35 06:35:49 AM1174 rebooted 64.89
22c 41 35 06:16:15 AM1184 rebooted 74.89
22c 40 35 05:56:31 AM1244 rebooted 94.89
21c 40 37 05:35:47 AM10054.89
21c 42 37 05:19:02 AM10074.89
21c 42 37 05:02:15 AM10054.89
21c 42 37 04:45:30 AM10064.89
21c 40 37 04:28:44 AM10054.89
21c 42 37 04:11:59 AM10064.89
21c 43 37 03:55:13 AM10064.89
22c 42 37 03:38:27 AM10064.89
22c 43 37 03:21:41 AM10064.89
22c 43 37 03:04:55 AM10064.89
22c 42 37 02:48:09 AM10064.89
22c 40 37 02:31:23 AM10064.89
22c 35 37 02:14:37 AM10064.89
22c 40 37 01:57:51 AM10064.89
23c 39 37 01:41:05 AM10054.89
23c 34 37 01:24:20 AM10064.89
23c 34 37 01:07:34 AM10064.89
23c 34 37 12:50:48 AM10064.89
23c 30 37 12:34:02 AM10064.89
23c 33 37 12:17:16 AM10074.89
23c 34 37 12:00:29 AM10064.89
23c 38 37 11:43:43 PM10064.89
24c 42 37 11:26:57 PM10064.89
24c 44 37 11:10:11 PM10064.89
24c 44 37 10:53:25 PM10094.89
24c 43 36 10:36:36 PM5964.89
24c 44 37 10:26:40 PM10054.89
24c 43 37 10:09:55 PM1057 rebooted 24.89
24c 43 37 09:52:18 PM10064.89
24c 43 37 09:35:32 PM10074.89
24c 41 37 09:18:45 PM10064.89
25c 38 37 09:01:59 PM10024.89
25c 38 34 08:45:17 PM1199 rebooted 74.89
25c 31 34 08:25:18 PM5884.89